sensor_id;sensor_type;location;lat;lon;timestamp;temperature;humidity
54485;DHT22;45006;56.958;24.166;2023-07-20T00:00:11;25.40;63.70
54485;DHT22;45006;56.958;24.166;2023-07-20T00:02:40;25.40;63.30
54485;DHT22;45006;56.958;24.166;2023-07-20T00:05:07;25.40;63.60
54485;DHT22;45006;56.958;24.166;2023-07-20T00:07:34;25.40;63.80
54485;DHT22;45006;56.958;24.166;2023-07-20T00:10:01;25.40;63.50
54485;DHT22;45006;56.958;24.166;2023-07-20T00:12:28;25.40;63.90
54485;DHT22;45006;56.958;24.166;2023-07-20T00:14:55;25.40;63.40
54485;DHT22;45006;56.958;24.166;2023-07-20T00:17:22;25.40;63.80
54485;DHT22;45006;56.958;24.166;2023-07-20T00:19:49;25.40;64.00
54485;DHT22;45006;56.958;24.166;2023-07-20T00:22:16;25.40;64.10
54485;DHT22;45006;56.958;24.166;2023-07-20T00:24:43;25.40;63.80
54485;DHT22;45006;56.958;24.166;2023-07-20T00:27:10;25.40;63.80
54485;DHT22;45006;56.958;24.166;2023-07-20T00:29:37;25.40;64.00
54485;DHT22;45006;56.958;24.166;2023-07-20T00:32:04;25.40;63.90
54485;DHT22;45006;56.958;24.166;2023-07-20T00:34:33;25.40;64.10
54485;DHT22;45006;56.958;24.166;2023-07-20T00:37:00;25.40;64.20
54485;DHT22;45006;56.958;24.166;2023-07-20T00:39:27;25.40;64.10
54485;DHT22;45006;56.958;24.166;2023-07-20T00:41:54;25.40;64.30
54485;DHT22;45006;56.958;24.166;2023-07-20T00:44:22;25.40;64.20
54485;DHT22;45006;56.958;24.166;2023-07-20T00:46:50;25.40;64.20
54485;DHT22;45006;56.958;24.166;2023-07-20T00:49:17;25.40;63.80
54485;DHT22;45006;56.958;24.166;2023-07-20T00:51:48;25.40;64.40
54485;DHT22;45006;56.958;24.166;2023-07-20T00:54:16;25.40;64.30
54485;DHT22;45006;56.958;24.166;2023-07-20T00:56:44;25.40;64.60
54485;DHT22;45006;56.958;24.166;2023-07-20T00:59:11;25.40;64.60
54485;DHT22;45006;56.958;24.166;2023-07-20T01:01:38;25.40;64.30
54485;DHT22;45006;56.958;24.166;2023-07-20T01:04:06;25.40;64.60
54485;DHT22;45006;56.958;24.166;2023-07-20T01:09:16;25.40;64.50
54485;DHT22;45006;56.958;24.166;2023-07-20T01:12:07;25.40;64.70
54485;DHT22;45006;56.958;24.166;2023-07-20T01:14:34;25.40;64.70
54485;DHT22;45006;56.958;24.166;2023-07-20T01:17:02;25.40;64.50
54485;DHT22;45006;56.958;24.166;2023-07-20T01:19:29;25.30;64.80
54485;DHT22;45006;56.958;24.166;2023-07-20T01:22:03;25.40;64.70
54485;DHT22;45006;56.958;24.166;2023-07-20T01:33:00;25.40;64.80
54485;DHT22;45006;56.958;24.166;2023-07-20T01:35:30;25.30;64.70
54485;DHT22;45006;56.958;24.166;2023-07-20T01:37:59;25.30;64.70
54485;DHT22;45006;56.958;24.166;2023-07-20T01:40:26;25.30;64.70
54485;DHT22;45006;56.958;24.166;2023-07-20T01:42:54;25.30;64.80
54485;DHT22;45006;56.958;24.166;2023-07-20T01:45:21;25.30;64.80
54485;DHT22;45006;56.958;24.166;2023-07-20T01:47:48;25.30;64.50
54485;DHT22;45006;56.958;24.166;2023-07-20T01:50:15;25.30;64.80
54485;DHT22;45006;56.958;24.166;2023-07-20T01:52:42;25.30;64.70
54485;DHT22;45006;56.958;24.166;2023-07-20T01:55:09;25.30;64.70
54485;DHT22;45006;56.958;24.166;2023-07-20T01:57:36;25.30;64.80
54485;DHT22;45006;56.958;24.166;2023-07-20T02:00:03;25.30;64.90
54485;DHT22;45006;56.958;24.166;2023-07-20T02:02:30;25.30;64.90
54485;DHT22;45006;56.958;24.166;2023-07-20T02:05:00;25.30;65.00
54485;DHT22;45006;56.958;24.166;2023-07-20T02:07:27;25.30;64.90
54485;DHT22;45006;56.958;24.166;2023-07-20T02:09:54;25.30;65.00
54485;DHT22;45006;56.958;24.166;2023-07-20T02:12:21;25.30;64.80
54485;DHT22;45006;56.958;24.166;2023-07-20T02:14:48;25.30;65.00
54485;DHT22;45006;56.958;24.166;2023-07-20T02:17:15;25.30;65.00
54485;DHT22;45006;56.958;24.166;2023-07-20T02:19:42;25.30;64.80
54485;DHT22;45006;56.958;24.166;2023-07-20T02:22:09;25.30;65.00
54485;DHT22;45006;56.958;24.166;2023-07-20T02:24:36;25.30;65.30
54485;DHT22;45006;56.958;24.166;2023-07-20T02:27:03;25.30;65.00
54485;DHT22;45006;56.958;24.166;2023-07-20T02:29:30;25.30;65.10
54485;DHT22;45006;56.958;24.166;2023-07-20T02:31:57;25.30;65.10
54485;DHT22;45006;56.958;24.166;2023-07-20T02:34:24;25.30;65.30
54485;DHT22;45006;56.958;24.166;2023-07-20T02:36:51;25.30;65.20
54485;DHT22;45006;56.958;24.166;2023-07-20T02:39:17;25.30;65.30
54485;DHT22;45006;56.958;24.166;2023-07-20T02:41:44;25.30;65.00
54485;DHT22;45006;56.958;24.166;2023-07-20T02:44:13;25.30;65.20
54485;DHT22;45006;56.958;24.166;2023-07-20T02:46:41;25.30;65.10
54485;DHT22;45006;56.958;24.166;2023-07-20T02:49:08;25.30;65.10
54485;DHT22;45006;56.958;24.166;2023-07-20T02:51:35;25.30;65.10
54485;DHT22;45006;56.958;24.166;2023-07-20T02:54:02;25.30;65.20
54485;DHT22;45006;56.958;24.166;2023-07-20T02:56:30;25.30;64.60
54485;DHT22;45006;56.958;24.166;2023-07-20T02:58:58;25.30;65.20
54485;DHT22;45006;56.958;24.166;2023-07-20T03:01:25;25.30;65.30
54485;DHT22;45006;56.958;24.166;2023-07-20T03:03:56;25.30;65.30
54485;DHT22;45006;56.958;24.166;2023-07-20T03:06:23;25.30;65.90
54485;DHT22;45006;56.958;24.166;2023-07-20T03:08:50;25.30;65.30
54485;DHT22;45006;56.958;24.166;2023-07-20T03:11:20;25.30;64.70
54485;DHT22;45006;56.958;24.166;2023-07-20T03:13:47;25.30;65.30
54485;DHT22;45006;56.958;24.166;2023-07-20T03:16:17;25.30;65.00
54485;DHT22;45006;56.958;24.166;2023-07-20T03:18:44;25.30;65.00
54485;DHT22;45006;56.958;24.166;2023-07-20T03:21:13;25.30;65.30
54485;DHT22;45006;56.958;24.166;2023-07-20T03:23:40;25.30;65.10
54485;DHT22;45006;56.958;24.166;2023-07-20T03:26:07;25.30;65.30
54485;DHT22;45006;56.958;24.166;2023-07-20T03:28:38;25.30;65.40
54485;DHT22;45006;56.958;24.166;2023-07-20T03:31:06;25.40;65.50
54485;DHT22;45006;56.958;24.166;2023-07-20T03:33:34;25.40;65.60
54485;DHT22;45006;56.958;24.166;2023-07-20T03:36:01;25.40;65.80
54485;DHT22;45006;56.958;24.166;2023-07-20T03:38:28;25.40;65.30
54485;DHT22;45006;56.958;24.166;2023-07-20T03:40:56;25.40;65.60
54485;DHT22;45006;56.958;24.166;2023-07-20T03:43:25;25.40;65.30
54485;DHT22;45006;56.958;24.166;2023-07-20T03:45:52;25.40;65.50
54485;DHT22;45006;56.958;24.166;2023-07-20T03:48:24;25.40;65.60
54485;DHT22;45006;56.958;24.166;2023-07-20T03:50:53;25.40;65.60
54485;DHT22;45006;56.958;24.166;2023-07-20T03:53:21;25.40;65.80
54485;DHT22;45006;56.958;24.166;2023-07-20T03:55:49;25.40;65.40
54485;DHT22;45006;56.958;24.166;2023-07-20T03:58:17;25.40;65.60
54485;DHT22;45006;56.958;24.166;2023-07-20T04:00:46;25.40;64.70
54485;DHT22;45006;56.958;24.166;2023-07-20T04:03:14;25.40;65.10
54485;DHT22;45006;56.958;24.166;2023-07-20T04:05:41;25.40;65.20
54485;DHT22;45006;56.958;24.166;2023-07-20T04:08:09;25.40;65.20
54485;DHT22;45006;56.958;24.166;2023-07-20T04:10:38;25.40;64.80
54485;DHT22;45006;56.958;24.166;2023-07-20T04:13:05;25.40;65.00
54485;DHT22;45006;56.958;24.166;2023-07-20T04:15:32;25.40;65.00
54485;DHT22;45006;56.958;24.166;2023-07-20T04:17:59;25.50;65.00
54485;DHT22;45006;56.958;24.166;2023-07-20T04:20:27;25.40;64.90
54485;DHT22;45006;56.958;24.166;2023-07-20T04:22:54;25.40;64.30
54485;DHT22;45006;56.958;24.166;2023-07-20T04:25:22;25.40;64.50
54485;DHT22;45006;56.958;24.166;2023-07-20T04:27:50;25.50;64.80
54485;DHT22;45006;56.958;24.166;2023-07-20T04:30:18;25.50;64.90
54485;DHT22;45006;56.958;24.166;2023-07-20T04:32:49;25.50;65.10
54485;DHT22;45006;56.958;24.166;2023-07-20T04:35:52;25.50;65.20
54485;DHT22;45006;56.958;24.166;2023-07-20T04:38:20;25.50;64.50
54485;DHT22;45006;56.958;24.166;2023-07-20T04:40:49;25.50;64.90
54485;DHT22;45006;56.958;24.166;2023-07-20T04:43:17;25.40;64.30
54485;DHT22;45006;56.958;24.166;2023-07-20T04:45:45;25.50;64.50
54485;DHT22;45006;56.958;24.166;2023-07-20T04:48:16;25.50;64.90
54485;DHT22;45006;56.958;24.166;2023-07-20T04:50:44;25.50;64.90
54485;DHT22;45006;56.958;24.166;2023-07-20T04:53:12;25.50;64.40
54485;DHT22;45006;56.958;24.166;2023-07-20T04:55:40;25.50;64.20
54485;DHT22;45006;56.958;24.166;2023-07-20T04:58:07;25.50;65.00
54485;DHT22;45006;56.958;24.166;2023-07-20T05:00:35;25.50;64.40
54485;DHT22;45006;56.958;24.166;2023-07-20T05:03:02;25.50;64.60
54485;DHT22;45006;56.958;24.166;2023-07-20T05:05:29;25.50;64.40
54485;DHT22;45006;56.958;24.166;2023-07-20T05:07:56;25.50;64.10
54485;DHT22;45006;56.958;24.166;2023-07-20T05:10:24;25.60;64.00
54485;DHT22;45006;56.958;24.166;2023-07-20T05:12:51;25.70;64.20
54485;DHT22;45006;56.958;24.166;2023-07-20T05:15:18;25.70;63.70
54485;DHT22;45006;56.958;24.166;2023-07-20T05:17:45;25.80;63.60
54485;DHT22;45006;56.958;24.166;2023-07-20T05:20:12;25.80;63.90
54485;DHT22;45006;56.958;24.166;2023-07-20T05:22:39;25.90;63.70
54485;DHT22;45006;56.958;24.166;2023-07-20T05:25:07;25.80;63.50
54485;DHT22;45006;56.958;24.166;2023-07-20T05:27:39;25.80;63.80
54485;DHT22;45006;56.958;24.166;2023-07-20T05:30:07;25.80;63.70
54485;DHT22;45006;56.958;24.166;2023-07-20T05:32:34;25.80;63.60
54485;DHT22;45006;56.958;24.166;2023-07-20T05:35:01;25.70;63.70
54485;DHT22;45006;56.958;24.166;2023-07-20T05:37:28;25.70;63.60
54485;DHT22;45006;56.958;24.166;2023-07-20T05:39:58;25.70;63.70
54485;DHT22;45006;56.958;24.166;2023-07-20T05:42:25;25.70;63.70
54485;DHT22;45006;56.958;24.166;2023-07-20T05:44:52;25.70;63.60
54485;DHT22;45006;56.958;24.166;2023-07-20T05:47:20;25.80;63.70
54485;DHT22;45006;56.958;24.166;2023-07-20T05:49:47;25.90;63.50
54485;DHT22;45006;56.958;24.166;2023-07-20T05:52:14;25.90;63.20
54485;DHT22;45006;56.958;24.166;2023-07-20T05:54:41;25.90;63.00
54485;DHT22;45006;56.958;24.166;2023-07-20T05:57:08;26.00;63.10
54485;DHT22;45006;56.958;24.166;2023-07-20T05:59:35;26.00;63.10
54485;DHT22;45006;56.958;24.166;2023-07-20T06:02:02;26.00;63.00
54485;DHT22;45006;56.958;24.166;2023-07-20T06:04:29;26.00;63.00
54485;DHT22;45006;56.958;24.166;2023-07-20T06:06:56;26.10;63.00
54485;DHT22;45006;56.958;24.166;2023-07-20T06:09:23;26.10;62.90
54485;DHT22;45006;56.958;24.166;2023-07-20T06:11:50;26.10;62.90
54485;DHT22;45006;56.958;24.166;2023-07-20T06:14:17;26.20;62.60
54485;DHT22;45006;56.958;24.166;2023-07-20T06:16:45;26.30;62.50
54485;DHT22;45006;56.958;24.166;2023-07-20T06:19:12;26.30;62.30
54485;DHT22;45006;56.958;24.166;2023-07-20T06:21:39;26.40;62.50
54485;DHT22;45006;56.958;24.166;2023-07-20T06:24:06;26.30;62.40
54485;DHT22;45006;56.958;24.166;2023-07-20T06:26:33;26.30;62.60
54485;DHT22;45006;56.958;24.166;2023-07-20T06:29:11;26.30;62.80
54485;DHT22;45006;56.958;24.166;2023-07-20T06:31:38;26.30;62.80
54485;DHT22;45006;56.958;24.166;2023-07-20T06:34:05;26.20;63.00
54485;DHT22;45006;56.958;24.166;2023-07-20T06:36:32;26.20;63.20
54485;DHT22;45006;56.958;24.166;2023-07-20T06:38:59;26.20;64.20
54485;DHT22;45006;56.958;24.166;2023-07-20T06:41:29;26.20;63.30
54485;DHT22;45006;56.958;24.166;2023-07-20T06:43:59;26.20;63.10
54485;DHT22;45006;56.958;24.166;2023-07-20T06:46:26;26.20;63.30
54485;DHT22;45006;56.958;24.166;2023-07-20T06:51:24;26.20;63.30
54485;DHT22;45006;56.958;24.166;2023-07-20T06:53:52;26.20;64.40
54485;DHT22;45006;56.958;24.166;2023-07-20T06:56:19;26.20;64.70
54485;DHT22;45006;56.958;24.166;2023-07-20T06:58:50;26.20;64.90
54485;DHT22;45006;56.958;24.166;2023-07-20T07:01:18;26.20;64.30
54485;DHT22;45006;56.958;24.166;2023-07-20T07:03:46;26.20;64.30
54485;DHT22;45006;56.958;24.166;2023-07-20T07:06:15;26.20;64.50
54485;DHT22;45006;56.958;24.166;2023-07-20T07:08:42;26.20;64.20
54485;DHT22;45006;56.958;24.166;2023-07-20T07:11:11;26.20;64.00
54485;DHT22;45006;56.958;24.166;2023-07-20T07:13:39;26.20;64.20
54485;DHT22;45006;56.958;24.166;2023-07-20T07:16:06;26.20;64.00
54485;DHT22;45006;56.958;24.166;2023-07-20T07:18:35;26.20;64.00
54485;DHT22;45006;56.958;24.166;2023-07-20T07:21:02;26.20;63.50
54485;DHT22;45006;56.958;24.166;2023-07-20T07:23:32;26.20;63.50
54485;DHT22;45006;56.958;24.166;2023-07-20T07:25:59;26.20;63.10
54485;DHT22;45006;56.958;24.166;2023-07-20T07:28:27;26.20;63.30
54485;DHT22;45006;56.958;24.166;2023-07-20T07:30:55;26.20;63.60
54485;DHT22;45006;56.958;24.166;2023-07-20T07:33:24;26.20;64.00
54485;DHT22;45006;56.958;24.166;2023-07-20T07:35:51;26.20;63.60
54485;DHT22;45006;56.958;24.166;2023-07-20T07:38:20;26.20;63.80
54485;DHT22;45006;56.958;24.166;2023-07-20T07:41:06;26.20;63.70
54485;DHT22;45006;56.958;24.166;2023-07-20T07:43:33;26.20;64.00
54485;DHT22;45006;56.958;24.166;2023-07-20T07:46:01;26.20;63.60
54485;DHT22;45006;56.958;24.166;2023-07-20T07:48:28;26.20;63.80
54485;DHT22;45006;56.958;24.166;2023-07-20T07:50:55;26.20;64.00
54485;DHT22;45006;56.958;24.166;2023-07-20T07:53:22;26.10;64.30
54485;DHT22;45006;56.958;24.166;2023-07-20T07:55:52;26.10;64.20
54485;DHT22;45006;56.958;24.166;2023-07-20T07:58:20;26.10;63.60
54485;DHT22;45006;56.958;24.166;2023-07-20T08:00:47;26.10;63.40
54485;DHT22;45006;56.958;24.166;2023-07-20T08:03:15;26.10;63.40
54485;DHT22;45006;56.958;24.166;2023-07-20T08:05:42;26.10;63.60
54485;DHT22;45006;56.958;24.166;2023-07-20T08:08:10;26.10;63.70
54485;DHT22;45006;56.958;24.166;2023-07-20T08:10:37;26.10;63.80
54485;DHT22;45006;56.958;24.166;2023-07-20T08:13:04;26.10;65.00
54485;DHT22;45006;56.958;24.166;2023-07-20T08:15:31;26.10;64.20
54485;DHT22;45006;56.958;24.166;2023-07-20T08:18:00;26.10;64.10
54485;DHT22;45006;56.958;24.166;2023-07-20T08:20:27;26.10;64.50
54485;DHT22;45006;56.958;24.166;2023-07-20T08:22:55;26.10;64.50
54485;DHT22;45006;56.958;24.166;2023-07-20T08:25:22;26.10;64.40
54485;DHT22;45006;56.958;24.166;2023-07-20T08:27:49;26.10;64.40
54485;DHT22;45006;56.958;24.166;2023-07-20T08:30:16;26.00;64.70
54485;DHT22;45006;56.958;24.166;2023-07-20T08:32:44;26.00;62.60
54485;DHT22;45006;56.958;24.166;2023-07-20T08:35:11;26.00;62.10
54485;DHT22;45006;56.958;24.166;2023-07-20T08:37:41;26.00;63.00
54485;DHT22;45006;56.958;24.166;2023-07-20T08:40:09;26.00;63.20
54485;DHT22;45006;56.958;24.166;2023-07-20T08:42:37;26.10;63.30
54485;DHT22;45006;56.958;24.166;2023-07-20T08:45:08;26.00;63.00
54485;DHT22;45006;56.958;24.166;2023-07-20T08:47:36;26.00;63.10
54485;DHT22;45006;56.958;24.166;2023-07-20T08:50:05;26.10;63.30
54485;DHT22;45006;56.958;24.166;2023-07-20T08:52:34;26.00;63.30
54485;DHT22;45006;56.958;24.166;2023-07-20T08:55:03;26.00;63.30
54485;DHT22;45006;56.958;24.166;2023-07-20T08:57:34;26.00;63.50
54485;DHT22;45006;56.958;24.166;2023-07-20T09:00:03;26.00;63.60
54485;DHT22;45006;56.958;24.166;2023-07-20T09:02:41;26.20;88.50
54485;DHT22;45006;56.958;24.166;2023-07-20T09:05:10;26.20;89.80
54485;DHT22;45006;56.958;24.166;2023-07-20T09:07:37;26.10;63.00
54485;DHT22;45006;56.958;24.166;2023-07-20T09:10:04;26.20;63.10
54485;DHT22;45006;56.958;24.166;2023-07-20T09:12:36;26.30;63.80
54485;DHT22;45006;56.958;24.166;2023-07-20T09:15:05;26.30;62.90
54485;DHT22;45006;56.958;24.166;2023-07-20T09:17:32;26.40;63.00
54485;DHT22;45006;56.958;24.166;2023-07-20T09:20:06;26.40;63.30
54485;DHT22;45006;56.958;24.166;2023-07-20T09:22:38;26.30;63.00
54485;DHT22;45006;56.958;24.166;2023-07-20T09:25:17;26.30;63.20
54485;DHT22;45006;56.958;24.166;2023-07-20T09:27:49;26.30;62.90
54485;DHT22;45006;56.958;24.166;2023-07-20T09:30:18;26.30;74.50
54485;DHT22;45006;56.958;24.166;2023-07-20T09:32:49;26.20;76.30
54485;DHT22;45006;56.958;24.166;2023-07-20T09:35:22;26.20;82.70
54485;DHT22;45006;56.958;24.166;2023-07-20T09:37:59;26.20;81.00
54485;DHT22;45006;56.958;24.166;2023-07-20T09:40:29;26.10;71.00
54485;DHT22;45006;56.958;24.166;2023-07-20T09:42:59;26.10;71.60
54485;DHT22;45006;56.958;24.166;2023-07-20T09:45:33;26.00;72.40
54485;DHT22;45006;56.958;24.166;2023-07-20T09:48:06;26.00;73.20
54485;DHT22;45006;56.958;24.166;2023-07-20T09:50:41;26.00;67.60
54485;DHT22;45006;56.958;24.166;2023-07-20T09:53:12;26.00;69.10
54485;DHT22;45006;56.958;24.166;2023-07-20T09:55:43;26.00;70.10
54485;DHT22;45006;56.958;24.166;2023-07-20T09:58:10;26.00;70.70
54485;DHT22;45006;56.958;24.166;2023-07-20T10:00:39;26.00;71.30
54485;DHT22;45006;56.958;24.166;2023-07-20T10:03:20;25.90;71.80
54485;DHT22;45006;56.958;24.166;2023-07-20T10:06:06;26.00;74.40
54485;DHT22;45006;56.958;24.166;2023-07-20T10:08:38;25.90;73.30
54485;DHT22;45006;56.958;24.166;2023-07-20T10:11:12;26.00;71.50
54485;DHT22;45006;56.958;24.166;2023-07-20T10:13:43;25.90;71.00
54485;DHT22;45006;56.958;24.166;2023-07-20T10:16:20;25.90;69.50
54485;DHT22;45006;56.958;24.166;2023-07-20T10:19:05;25.90;70.20
54485;DHT22;45006;56.958;24.166;2023-07-20T10:21:47;26.00;70.60
54485;DHT22;45006;56.958;24.166;2023-07-20T10:24:22;25.90;70.10
54485;DHT22;45006;56.958;24.166;2023-07-20T10:26:49;26.00;69.90
54485;DHT22;45006;56.958;24.166;2023-07-20T10:29:17;26.00;69.90
54485;DHT22;45006;56.958;24.166;2023-07-20T10:31:44;25.90;70.30
54485;DHT22;45006;56.958;24.166;2023-07-20T10:34:12;26.00;70.60
54485;DHT22;45006;56.958;24.166;2023-07-20T10:36:46;25.90;71.30
54485;DHT22;45006;56.958;24.166;2023-07-20T10:39:27;25.90;71.60
54485;DHT22;45006;56.958;24.166;2023-07-20T10:42:13;25.90;72.60
54485;DHT22;45006;56.958;24.166;2023-07-20T10:44:40;25.90;73.20
54485;DHT22;45006;56.958;24.166;2023-07-20T10:47:13;26.00;73.90
54485;DHT22;45006;56.958;24.166;2023-07-20T10:49:59;25.90;74.60
54485;DHT22;45006;56.958;24.166;2023-07-20T10:52:37;26.00;76.20
54485;DHT22;45006;56.958;24.166;2023-07-20T10:55:17;26.00;77.30
54485;DHT22;45006;56.958;24.166;2023-07-20T10:58:07;26.00;78.00
54485;DHT22;45006;56.958;24.166;2023-07-20T11:00:35;26.00;79.20
54485;DHT22;45006;56.958;24.166;2023-07-20T11:03:04;26.00;81.30
54485;DHT22;45006;56.958;24.166;2023-07-20T11:05:36;26.00;83.00
54485;DHT22;45006;56.958;24.166;2023-07-20T11:08:10;26.00;88.80
54485;DHT22;45006;56.958;24.166;2023-07-20T11:10:39;26.00;73.50
54485;DHT22;45006;56.958;24.166;2023-07-20T11:13:25;26.00;73.40
54485;DHT22;45006;56.958;24.166;2023-07-20T11:18:26;26.00;74.40
54485;DHT22;45006;56.958;24.166;2023-07-20T11:20:54;26.00;75.90
54485;DHT22;45006;56.958;24.166;2023-07-20T11:23:21;26.00;76.00
54485;DHT22;45006;56.958;24.166;2023-07-20T11:25:49;26.00;76.20
54485;DHT22;45006;56.958;24.166;2023-07-20T11:28:16;26.00;77.30
54485;DHT22;45006;56.958;24.166;2023-07-20T11:30:43;25.90;79.10
54485;DHT22;45006;56.958;24.166;2023-07-20T11:33:10;26.00;81.60
54485;DHT22;45006;56.958;24.166;2023-07-20T11:35:48;25.90;82.10
54485;DHT22;45006;56.958;24.166;2023-07-20T11:38:17;26.00;88.20
54485;DHT22;45006;56.958;24.166;2023-07-20T11:40:45;26.00;89.20
54485;DHT22;45006;56.958;24.166;2023-07-20T11:43:12;26.00;87.10
54485;DHT22;45006;56.958;24.166;2023-07-20T11:45:44;25.90;86.10
54485;DHT22;45006;56.958;24.166;2023-07-20T11:48:18;25.90;86.00
54485;DHT22;45006;56.958;24.166;2023-07-20T11:50:45;25.90;85.80
54485;DHT22;45006;56.958;24.166;2023-07-20T11:53:12;25.90;86.40
54485;DHT22;45006;56.958;24.166;2023-07-20T11:55:42;25.90;86.90
54485;DHT22;45006;56.958;24.166;2023-07-20T11:58:09;25.90;86.60
54485;DHT22;45006;56.958;24.166;2023-07-20T12:00:38;25.90;87.10
54485;DHT22;45006;56.958;24.166;2023-07-20T12:03:07;25.90;86.90
54485;DHT22;45006;56.958;24.166;2023-07-20T12:05:34;25.90;87.50
54485;DHT22;45006;56.958;24.166;2023-07-20T12:08:21;25.90;88.40
54485;DHT22;45006;56.958;24.166;2023-07-20T12:10:48;25.90;88.00
54485;DHT22;45006;56.958;24.166;2023-07-20T12:13:16;25.90;87.50
54485;DHT22;45006;56.958;24.166;2023-07-20T12:15:43;25.90;87.90
54485;DHT22;45006;56.958;24.166;2023-07-20T12:18:10;25.90;88.00
54485;DHT22;45006;56.958;24.166;2023-07-20T12:20:38;25.90;87.60
54485;DHT22;45006;56.958;24.166;2023-07-20T12:23:10;25.90;87.70
54485;DHT22;45006;56.958;24.166;2023-07-20T12:25:40;25.90;87.90
54485;DHT22;45006;56.958;24.166;2023-07-20T12:28:12;25.90;87.90
54485;DHT22;45006;56.958;24.166;2023-07-20T12:30:42;25.90;87.70
54485;DHT22;45006;56.958;24.166;2023-07-20T12:33:11;25.90;87.60
54485;DHT22;45006;56.958;24.166;2023-07-20T12:35:44;25.90;87.00
54485;DHT22;45006;56.958;24.166;2023-07-20T12:38:11;25.80;87.30
54485;DHT22;45006;56.958;24.166;2023-07-20T12:40:38;25.90;87.20
54485;DHT22;45006;56.958;24.166;2023-07-20T12:43:05;25.80;87.10
54485;DHT22;45006;56.958;24.166;2023-07-20T12:45:33;25.80;87.80
54485;DHT22;45006;56.958;24.166;2023-07-20T12:48:00;25.80;89.40
54485;DHT22;45006;56.958;24.166;2023-07-20T12:50:27;25.90;90.10
54485;DHT22;45006;56.958;24.166;2023-07-20T12:52:54;25.90;90.00
54485;DHT22;45006;56.958;24.166;2023-07-20T12:55:23;25.80;89.20
54485;DHT22;45006;56.958;24.166;2023-07-20T12:57:50;25.80;86.80
54485;DHT22;45006;56.958;24.166;2023-07-20T13:00:17;25.80;88.10
54485;DHT22;45006;56.958;24.166;2023-07-20T13:02:44;25.80;86.40
54485;DHT22;45006;56.958;24.166;2023-07-20T13:05:11;25.80;86.90
54485;DHT22;45006;56.958;24.166;2023-07-20T13:07:39;25.90;87.50
54485;DHT22;45006;56.958;24.166;2023-07-20T13:10:11;25.80;88.20
54485;DHT22;45006;56.958;24.166;2023-07-20T13:12:38;25.90;88.90
54485;DHT22;45006;56.958;24.166;2023-07-20T13:15:07;25.80;87.90
54485;DHT22;45006;56.958;24.166;2023-07-20T13:17:36;25.80;86.50
54485;DHT22;45006;56.958;24.166;2023-07-20T13:20:04;25.80;88.90
54485;DHT22;45006;56.958;24.166;2023-07-20T13:22:31;25.80;89.20
54485;DHT22;45006;56.958;24.166;2023-07-20T13:24:58;25.80;90.50
54485;DHT22;45006;56.958;24.166;2023-07-20T13:27:31;25.80;89.40
54485;DHT22;45006;56.958;24.166;2023-07-20T13:29:59;25.80;89.20
54485;DHT22;45006;56.958;24.166;2023-07-20T13:32:29;25.90;90.20
54485;DHT22;45006;56.958;24.166;2023-07-20T13:35:00;25.80;91.10
54485;DHT22;45006;56.958;24.166;2023-07-20T13:37:27;25.80;91.00
54485;DHT22;45006;56.958;24.166;2023-07-20T14:00:04;25.70;93.70
54485;DHT22;45006;56.958;24.166;2023-07-20T16:45:26;25.50;93.40
54485;DHT22;45006;56.958;24.166;2023-07-20T17:05:11;25.60;92.30
54485;DHT22;45006;56.958;24.166;2023-07-20T17:10:09;25.50;92.40
54485;DHT22;45006;56.958;24.166;2023-07-20T17:12:37;25.50;92.60
54485;DHT22;45006;56.958;24.166;2023-07-20T17:17:34;25.50;92.60
54485;DHT22;45006;56.958;24.166;2023-07-20T17:22:35;25.50;92.50
54485;DHT22;45006;56.958;24.166;2023-07-20T17:27:32;25.50;92.50
54485;DHT22;45006;56.958;24.166;2023-07-20T17:32:50;25.50;92.50
54485;DHT22;45006;56.958;24.166;2023-07-20T17:37:48;25.50;92.70
54485;DHT22;45006;56.958;24.166;2023-07-20T17:40:18;25.50;92.80
54485;DHT22;45006;56.958;24.166;2023-07-20T17:42:49;25.50;92.80
54485;DHT22;45006;56.958;24.166;2023-07-20T17:45:21;25.50;92.90
54485;DHT22;45006;56.958;24.166;2023-07-20T17:47:49;25.50;92.90
54485;DHT22;45006;56.958;24.166;2023-07-20T17:50:16;25.50;93.00
54485;DHT22;45006;56.958;24.166;2023-07-20T17:52:43;25.50;93.00
54485;DHT22;45006;56.958;24.166;2023-07-20T17:55:10;25.50;93.10
54485;DHT22;45006;56.958;24.166;2023-07-20T17:57:37;25.50;93.10
54485;DHT22;45006;56.958;24.166;2023-07-20T18:00:05;25.50;93.20
54485;DHT22;45006;56.958;24.166;2023-07-20T18:02:39;25.50;93.30
54485;DHT22;45006;56.958;24.166;2023-07-20T18:05:07;25.50;93.20
54485;DHT22;45006;56.958;24.166;2023-07-20T18:07:34;25.50;93.30
54485;DHT22;45006;56.958;24.166;2023-07-20T18:10:02;25.50;93.20
54485;DHT22;45006;56.958;24.166;2023-07-20T18:12:30;25.50;93.30
54485;DHT22;45006;56.958;24.166;2023-07-20T18:14:58;25.50;93.10
54485;DHT22;45006;56.958;24.166;2023-07-20T18:17:25;25.50;93.20
54485;DHT22;45006;56.958;24.166;2023-07-20T18:19:53;25.50;93.00
54485;DHT22;45006;56.958;24.166;2023-07-20T18:22:20;25.50;93.10
54485;DHT22;45006;56.958;24.166;2023-07-20T18:24:49;25.50;93.10
54485;DHT22;45006;56.958;24.166;2023-07-20T18:27:17;25.50;93.20
54485;DHT22;45006;56.958;24.166;2023-07-20T18:29:44;25.50;93.30
54485;DHT22;45006;56.958;24.166;2023-07-20T18:32:11;25.50;93.00
54485;DHT22;45006;56.958;24.166;2023-07-20T18:34:38;25.50;93.10
54485;DHT22;45006;56.958;24.166;2023-07-20T18:37:05;25.50;93.10
54485;DHT22;45006;56.958;24.166;2023-07-20T18:39:32;25.50;93.00
54485;DHT22;45006;56.958;24.166;2023-07-20T18:41:59;25.40;93.20
54485;DHT22;45006;56.958;24.166;2023-07-20T18:44:26;25.40;68.00
54485;DHT22;45006;56.958;24.166;2023-07-20T18:46:56;25.30;67.30
54485;DHT22;45006;56.958;24.166;2023-07-20T18:49:23;25.30;67.50
54485;DHT22;45006;56.958;24.166;2023-07-20T18:51:52;25.30;67.70
54485;DHT22;45006;56.958;24.166;2023-07-20T18:54:20;25.30;67.70
54485;DHT22;45006;56.958;24.166;2023-07-20T18:56:47;25.30;67.50
54485;DHT22;45006;56.958;24.166;2023-07-20T18:59:14;25.30;67.50
54485;DHT22;45006;56.958;24.166;2023-07-20T19:01:41;25.20;67.40
54485;DHT22;45006;56.958;24.166;2023-07-20T19:04:09;25.20;67.60
54485;DHT22;45006;56.958;24.166;2023-07-20T19:06:35;25.30;67.90
54485;DHT22;45006;56.958;24.166;2023-07-20T19:09:02;25.20;67.80
54485;DHT22;45006;56.958;24.166;2023-07-20T19:11:31;25.20;68.20
54485;DHT22;45006;56.958;24.166;2023-07-20T19:14:00;25.20;68.90
54485;DHT22;45006;56.958;24.166;2023-07-20T19:16:27;25.20;69.30